Quick Links (Output Below):   Max & Min Temps   /   Climate Reports   /   Zone Forecasts
River Forecasts   /   Forestry Forecasts   /   Aviation Forecasts   /   Radars   /   Features

Terminal Aerodrome Forecast (Highfill)

Pick a Site:
Arkadelphia | El Dorado | Fayetteville | Fort Smith | Harrison | Highfill | Hot Springs | Jonesboro
Little Rock | Monticello | Mountain Home | Pine Bluff | Texarkana
 Forecast 

KXNA 302327Z 3100/3124 22009KT P6SM SKC
     FM310700 18003KT 4SM BR OVC010
     FM311000 19004KT 2SM BR OVC005
     FM311500 20005KT P6SM BKN015
     FM311700 23005KT P6SM SCT030=


 Latest METARs (Observations) 
How to Decode METARs
01Z KXNA 310053Z 20006KT 10SM CLR 18/04 A3003 RMK AO2 SLP166
         T01830039
         
00Z KXNA 302353Z 22007KT 10SM CLR 21/03 A3004 RMK AO2 SLP167 T02110028
         10233 20200 56020
         
***** Today's Observations (Above) *****


23Z KXNA 302253Z 22009KT 10SM CLR 22/03 A3005 RMK AO2 SLP170
         T02220033
         
22Z KXNA 302153Z 20009KT 10SM CLR 23/03 A3006 RMK AO2 SLP175
         T02280033
         
21Z KXNA 302053Z 19009KT 10SM CLR 23/02 A3010 RMK AO2 SLP186 T02280022
         58031
         
20Z KXNA 301953Z AUTO 21011KT 10SM CLR 22/02 A3013 RMK AO2 SLP197
         T02220017
         
19Z KXNA 301853Z 21008KT 10SM CLR 22/03 A3016 RMK AO2 SLP208
         T02170028
         
18Z KXNA 301753Z VRB03KT 10SM CLR 20/03 A3019 RMK AO2 SLP218 T02000033
         10200 20039 58007
         
17Z KXNA 301653Z 17006KT 10SM CLR 18/05 A3021 RMK AO2 SLP227
         T01780050
         
16Z KXNA 301553Z 12008KT 10SM CLR 15/05 A3023 RMK AO2 SLP235
         T01500050
         
***** Yesterday's Observations (Above) *****


Back to Main Page
http://www.srh.noaa.gov/lzk/qfcst.php

USA.gov is the U.S. government's official web portal to all federal, state and local government web resources and services.